createdAt,value
2022-09-01T00:00:00.912Z,6.14
2022-09-01T00:00:57.727Z,6.03
2022-09-01T00:01:57.824Z,6
2022-09-01T00:02:57.811Z,6.09
2022-09-01T00:03:58.518Z,6.11
2022-09-01T00:04:57.942Z,6.15
2022-09-01T00:05:57.810Z,6.07
2022-09-01T00:06:57.809Z,6.15
2022-09-01T00:07:57.896Z,6.17
2022-09-01T00:09:00.032Z,6.11
2022-09-01T00:09:58.946Z,6.07
2022-09-01T00:10:57.852Z,6.03
2022-09-01T00:11:57.904Z,5.99
2022-09-01T00:12:58.340Z,6
2022-09-01T00:13:59.450Z,6.04
2022-09-01T00:14:58.522Z,5.99
2022-09-01T00:15:57.999Z,6.04
2022-09-01T00:16:59.459Z,6.01
2022-09-01T00:17:57.930Z,5.98
2022-09-01T00:18:58.020Z,6.03
2022-09-01T00:19:57.944Z,5.97
2022-09-01T00:20:58.764Z,5.99
2022-09-01T00:21:57.977Z,5.94
2022-09-01T00:22:58.102Z,5.98
2022-09-01T00:23:58.919Z,5.99
2022-09-01T00:24:58.002Z,6.1
2022-09-01T00:25:58.014Z,5.98
2022-09-01T00:26:58.183Z,5.93
2022-09-01T00:27:58.086Z,5.92
2022-09-01T00:28:58.064Z,5.96
2022-09-01T00:29:58.808Z,5.88
2022-09-01T00:30:58.138Z,5.98
2022-09-01T00:31:58.370Z,5.94
2022-09-01T00:32:58.173Z,5.91
2022-09-01T00:33:58.131Z,6
2022-09-01T00:34:58.126Z,5.9
2022-09-01T00:35:58.558Z,5.9
2022-09-01T00:36:58.345Z,5.85
2022-09-01T00:37:58.254Z,5.9
2022-09-01T00:38:58.226Z,5.85
2022-09-01T00:39:58.191Z,5.88
2022-09-01T00:40:58.223Z,5.84
2022-09-01T00:41:58.482Z,5.84
2022-09-01T00:42:58.296Z,5.85
2022-09-01T00:43:59.737Z,5.85
2022-09-01T00:44:58.265Z,5.81
2022-09-01T00:45:58.327Z,5.87
2022-09-01T00:46:59.719Z,5.84
2022-09-01T00:47:58.321Z,5.76
2022-09-01T00:49:00.760Z,5.82
2022-09-01T00:49:58.648Z,5.79
2022-09-01T00:50:58.854Z,5.79
2022-09-01T00:52:01.120Z,5.68
2022-09-01T00:52:58.789Z,5.59
2022-09-01T00:54:00.431Z,5.64
2022-09-01T00:55:02.519Z,5.72
2022-09-01T00:55:58.934Z,5.65
2022-09-01T00:56:59.220Z,5.7
2022-09-01T00:57:59.650Z,5.7
2022-09-01T00:58:59.326Z,5.74
2022-09-01T01:00:05.857Z,5.75
2022-09-01T01:01:02.531Z,5.83
2022-09-01T01:02:02.216Z,5.74
2022-09-01T01:03:02.167Z,5.63
2022-09-01T01:04:03.224Z,5.69
2022-09-01T01:05:02.101Z,5.71
2022-09-01T01:06:04.669Z,5.59
2022-09-01T01:07:02.781Z,5.6
2022-09-01T01:08:03.191Z,5.53
2022-09-01T01:09:02.285Z,5.61
2022-09-01T01:10:02.517Z,5.55
2022-09-01T01:11:03.720Z,5.55
2022-09-01T01:12:04.681Z,5.47
2022-09-01T01:13:02.286Z,5.42
2022-09-01T01:14:05.002Z,5.49
2022-09-01T01:15:02.289Z,5.48
2022-09-01T01:16:03.441Z,5.4
2022-09-01T01:17:02.668Z,5.38
2022-09-01T01:18:02.334Z,5.34
2022-09-01T01:19:03.765Z,5.39
2022-09-01T01:20:02.843Z,5.36
2022-09-01T01:21:04.404Z,5.38
2022-09-01T01:22:02.722Z,5.39
2022-09-01T01:25:09.529Z,5.31
2022-09-01T01:26:09.862Z,5.25
2022-09-01T01:27:09.134Z,5.18
2022-09-01T01:29:11.612Z,5.29
2022-09-01T01:30:12.270Z,5.24
2022-09-01T01:31:13.866Z,5.2
2022-09-01T01:32:11.553Z,5.16
2022-09-01T01:33:11.782Z,5.26
2022-09-01T01:34:11.636Z,5.26
2022-09-01T01:35:12.582Z,5.31
2022-09-01T01:36:13.101Z,5.29
2022-09-01T01:37:12.281Z,5.24
2022-09-01T01:38:11.736Z,5.3
2022-09-01T01:39:17.047Z,5.25
2022-09-01T01:40:14.809Z,5.19
2022-09-01T01:41:14.925Z,5.23
2022-09-01T01:42:13.381Z,5.3
2022-09-01T01:43:13.261Z,5.37
2022-09-01T01:44:13.879Z,5.32
2022-09-01T01:45:14.136Z,5.39
2022-09-01T01:46:13.712Z,5.43
2022-09-01T01:47:13.353Z,5.41
2022-09-01T01:48:13.340Z,5.37
2022-09-01T01:49:14.712Z,5.36
2022-09-01T01:50:13.595Z,5.4
2022-09-01T01:51:13.417Z,5.38
2022-09-01T01:52:13.766Z,5.35
2022-09-01T01:53:13.461Z,5.36
2022-09-01T01:54:14.648Z,5.38
2022-09-01T01:55:13.748Z,5.36
2022-09-01T01:56:13.777Z,5.34
2022-09-01T01:57:13.529Z,5.26
2022-09-01T01:58:13.501Z,5.29
2022-09-01T01:59:13.541Z,5.26
2022-09-01T02:00:14.138Z,5.27
2022-09-01T02:01:13.596Z,5.27
2022-09-01T02:02:13.800Z,5.28
2022-09-01T02:03:22.180Z,5.3
2022-09-01T02:04:19.225Z,5.28
2022-09-01T02:05:26.004Z,5.22
2022-09-01T02:06:23.635Z,5.25
2022-09-01T02:07:22.255Z,5.23
2022-09-01T02:08:23.684Z,5.21
2022-09-01T02:09:22.227Z,5.2
2022-09-01T02:10:23.471Z,5.17
2022-09-01T02:11:22.291Z,5.21
2022-09-01T02:12:22.264Z,5.21
2022-09-01T02:13:23.211Z,5.21
2022-09-01T02:14:22.568Z,5.22
2022-09-01T02:15:22.314Z,5.23
2022-09-01T02:16:25.716Z,5.15
2022-09-01T02:17:22.698Z,5.25
2022-09-01T02:18:27.247Z,5.25
2022-09-01T02:19:23.428Z,5.21
2022-09-01T02:20:23.626Z,5.18
2022-09-01T02:21:24.262Z,5.14
2022-09-01T02:22:23.489Z,5.11
2022-09-01T02:23:23.603Z,5.17
2022-09-01T02:24:23.801Z,5.18
2022-09-01T02:25:23.511Z,5.19
2022-09-01T02:26:23.542Z,5.13
2022-09-01T02:27:23.545Z,5.2
2022-09-01T02:28:23.795Z,5.25
2022-09-01T02:29:23.658Z,5.19
2022-09-01T02:30:23.818Z,5.1
2022-09-01T02:31:23.657Z,5.19
2022-09-01T02:32:23.660Z,5.16
2022-09-01T02:33:24.462Z,5.06
2022-09-01T02:34:24.582Z,5.15
2022-09-01T02:35:23.836Z,5.13
2022-09-01T02:36:23.960Z,5.05
2022-09-01T02:37:23.757Z,5.01
2022-09-01T02:38:24.156Z,5.04
2022-09-01T02:39:26.066Z,5.08
2022-09-01T02:40:24.028Z,5.1
2022-09-01T02:41:24.103Z,5.14
2022-09-01T02:42:23.943Z,5.21
2022-09-01T02:43:24.500Z,5.09
2022-09-01T02:44:23.816Z,5.08
2022-09-01T02:45:24.159Z,5.16
2022-09-01T02:46:24.488Z,5.09
2022-09-01T02:47:24.178Z,5.09
2022-09-01T02:49:26.080Z,5.18
2022-09-01T02:50:25.727Z,5.2
2022-09-01T02:51:25.943Z,5.13
2022-09-01T02:52:25.708Z,5.14
2022-09-01T02:53:26.018Z,5.22
2022-09-01T02:54:25.813Z,5.1
2022-09-01T02:55:25.792Z,5.17
2022-09-01T02:56:26.046Z,5.09
2022-09-01T02:57:25.784Z,5.14
2022-09-01T02:58:26.547Z,5.11
2022-09-01T02:59:27.188Z,5.23
2022-09-01T03:00:25.886Z,5.25
2022-09-01T03:01:27.823Z,5.19
2022-09-01T03:02:25.968Z,5.22
2022-09-01T03:03:26.931Z,5.23
2022-09-01T03:04:26.044Z,5.19
2022-09-01T03:05:27.302Z,5.15
2022-09-01T03:06:26.399Z,5.22
2022-09-01T03:07:25.942Z,5.21
2022-09-01T03:08:25.947Z,5.21
2022-09-01T03:09:26.110Z,5.21
2022-09-01T03:10:31.319Z,5.23
2022-09-01T03:11:29.109Z,5.28
2022-09-01T03:12:27.506Z,5.26
2022-09-01T03:13:27.563Z,5.25
2022-09-01T03:14:27.523Z,5.34
2022-09-01T03:15:27.997Z,5.3
2022-09-01T03:16:28.100Z,5.26
2022-09-01T03:17:27.638Z,5.25
2022-09-01T03:18:27.594Z,5.36
2022-09-01T03:19:27.642Z,5.31
2022-09-01T03:20:29.376Z,5.36
2022-09-01T03:21:27.659Z,5.42
2022-09-01T03:22:27.739Z,5.4
2022-09-01T03:23:28.649Z,5.37
2022-09-01T03:24:27.717Z,5.46
2022-09-01T03:25:27.766Z,5.36
2022-09-01T03:26:27.741Z,5.5
2022-09-01T03:27:27.778Z,5.47
2022-09-01T03:28:28.283Z,5.5
2022-09-01T03:29:27.807Z,5.45
2022-09-01T03:30:28.828Z,5.42
2022-09-01T03:31:29.958Z,5.44
2022-09-01T03:32:27.892Z,5.51
2022-09-01T03:33:28.134Z,5.5
2022-09-01T03:34:28.013Z,5.45
2022-09-01T03:35:29.868Z,5.55
2022-09-01T03:36:28.591Z,5.47
2022-09-01T03:37:28.013Z,5.52
2022-09-01T03:38:28.134Z,5.48
2022-09-01T03:39:27.958Z,5.45
2022-09-01T03:40:30.624Z,5.49
2022-09-01T03:41:28.893Z,5.65
2022-09-01T03:42:28.147Z,5.61
2022-09-01T03:43:35.574Z,5.58
2022-09-01T03:44:32.475Z,5.54
2022-09-01T03:45:32.580Z,5.55
2022-09-01T03:46:36.639Z,5.73
2022-09-01T03:47:33.391Z,5.61
2022-09-01T03:48:33.386Z,5.63
2022-09-01T03:49:33.379Z,5.67
2022-09-01T03:50:33.381Z,5.72
2022-09-01T03:51:33.584Z,5.6
2022-09-01T03:52:33.420Z,5.8
2022-09-01T03:53:34.409Z,5.73
2022-09-01T03:54:33.427Z,5.72
2022-09-01T03:55:34.617Z,5.69
2022-09-01T03:56:33.724Z,5.66
2022-09-01T03:57:33.949Z,5.66
2022-09-01T03:58:33.466Z,5.65
2022-09-01T03:59:33.562Z,5.63
2022-09-01T04:00:35.174Z,5.69
2022-09-01T04:01:33.650Z,5.75
2022-09-01T04:02:33.633Z,5.75
2022-09-01T04:03:33.690Z,5.71
2022-09-01T04:04:33.631Z,5.74
2022-09-01T04:05:34.658Z,5.69
2022-09-01T04:06:33.655Z,5.62
2022-09-01T04:07:33.672Z,5.72
2022-09-01T04:08:33.871Z,5.73
2022-09-01T04:09:34.143Z,5.75
2022-09-01T04:10:35.129Z,5.68
2022-09-01T04:11:34.046Z,5.76
2022-09-01T04:12:33.733Z,5.85
2022-09-01T04:13:35.299Z,5.77
2022-09-01T04:14:34.144Z,5.78
2022-09-01T04:15:37.529Z,5.78
2022-09-01T04:16:34.620Z,5.83
2022-09-01T04:17:34.239Z,5.86
2022-09-01T04:18:33.828Z,5.74
2022-09-01T04:19:35.336Z,5.91
2022-09-01T04:20:33.834Z,5.86
2022-09-01T04:21:33.853Z,5.77
2022-09-01T04:22:33.890Z,5.75
2022-09-01T04:23:34.803Z,5.9
2022-09-01T04:24:34.253Z,5.83
2022-09-01T04:25:33.944Z,5.96
2022-09-01T04:26:33.999Z,5.9
2022-09-01T04:27:33.993Z,5.91
2022-09-01T04:28:35.416Z,5.85
2022-09-01T04:29:34.147Z,5.85
2022-09-01T04:30:34.083Z,5.94
2022-09-01T04:31:35.560Z,5.86
2022-09-01T04:32:34.043Z,5.85
2022-09-01T04:33:35.026Z,6.07
2022-09-01T04:34:35.396Z,5.92
2022-09-01T04:35:38.113Z,5.83
2022-09-01T04:36:34.307Z,5.79
2022-09-01T04:37:34.355Z,5.78
2022-09-01T04:38:34.338Z,5.99
2022-09-01T04:39:34.386Z,5.87
2022-09-01T04:40:38.550Z,5.82
2022-09-01T04:41:35.856Z,5.99
2022-09-01T04:42:35.140Z,5.9
2022-09-01T04:43:35.040Z,6.01
2022-09-01T04:44:35.064Z,6.02
2022-09-01T04:45:35.958Z,5.98
2022-09-01T04:46:37.206Z,5.91
2022-09-01T04:47:35.928Z,5.94
2022-09-01T04:48:34.927Z,6.02
2022-09-01T04:49:34.950Z,6.12
2022-09-01T04:50:34.996Z,6.01
2022-09-01T04:51:37.694Z,6.12
2022-09-01T04:52:34.997Z,6.18
2022-09-01T04:53:35.034Z,6.06
2022-09-01T04:54:37.493Z,6.14
2022-09-01T04:55:37.800Z,6.22
2022-09-01T04:56:35.101Z,6.09
2022-09-01T04:57:35.733Z,6.19
2022-09-01T04:58:35.880Z,6.14
2022-09-01T04:59:35.112Z,6.14
2022-09-01T05:00:35.245Z,6.29
2022-09-01T05:01:35.482Z,6.22
2022-09-01T05:02:35.274Z,6.35
2022-09-01T05:03:35.187Z,6.25
2022-09-01T05:04:35.642Z,6.43
2022-09-01T05:05:36.837Z,6.3
2022-09-01T05:06:35.279Z,6.39
2022-09-01T05:07:35.323Z,6.34
2022-09-01T05:08:35.376Z,6.45
2022-09-01T05:09:36.295Z,6.54
2022-09-01T05:10:38.619Z,6.59
2022-09-01T05:11:36.822Z,6.48
2022-09-01T05:12:36.640Z,6.51
2022-09-01T05:13:36.823Z,6.54
2022-09-01T05:14:40.705Z,6.7
2022-09-01T05:15:37.733Z,6.53
2022-09-01T05:16:37.008Z,6.57
2022-09-01T05:17:36.927Z,6.67
2022-09-01T05:18:36.950Z,6.8
2022-09-01T05:19:37.761Z,6.81
2022-09-01T05:20:37.853Z,6.68
2022-09-01T05:21:37.566Z,6.69
2022-09-01T05:22:37.392Z,6.81
2022-09-01T05:23:38.400Z,6.88
2022-09-01T05:24:41.758Z,6.87
2022-09-01T05:25:39.459Z,7.02
2022-09-01T05:26:38.404Z,6.98
2022-09-01T05:27:42.588Z,6.78
2022-09-01T05:28:38.806Z,6.91
2022-09-01T05:29:38.962Z,6.92
2022-09-01T05:30:39.864Z,6.84
2022-09-01T05:31:43.179Z,7.06
2022-09-01T05:32:39.403Z,7
2022-09-01T05:33:39.728Z,7.03
2022-09-01T05:34:40.453Z,7.22
2022-09-01T05:35:39.814Z,7.23
2022-09-01T05:36:41.855Z,7.3
2022-09-01T05:37:39.483Z,7.28
2022-09-01T05:38:39.539Z,7.34
2022-09-01T05:39:39.828Z,7.38
2022-09-01T05:40:40.627Z,7.37
2022-09-01T05:41:40.463Z,7.34
2022-09-01T05:42:39.992Z,7.28
2022-09-01T05:43:39.576Z,7.45
2022-09-01T05:44:40.128Z,7.44
2022-09-01T05:46:05.248Z,7.18
2022-09-01T05:46:41.930Z,7.29
2022-09-01T05:47:41.671Z,7.37
2022-09-01T05:48:41.690Z,7.43
2022-09-01T05:49:41.711Z,7.4
2022-09-01T05:50:42.364Z,7.75
2022-09-01T05:51:45.877Z,7.52
2022-09-01T05:52:42.341Z,7.53
2022-09-01T05:53:42.348Z,7.55
2022-09-01T05:54:42.379Z,7.53
2022-09-01T05:55:45.988Z,7.73
2022-09-01T05:56:44.622Z,7.71
2022-09-01T05:57:42.430Z,7.72
2022-09-01T05:59:43.613Z,7.79
2022-09-01T06:00:44.796Z,7.77
2022-09-01T06:01:48.124Z,7.73
2022-09-01T06:02:46.272Z,7.67
2022-09-01T06:03:46.180Z,7.71
2022-09-01T06:04:46.248Z,7.81
2022-09-01T06:05:46.236Z,7.99
2022-09-01T06:07:08.191Z,8.05
2022-09-01T06:07:48.626Z,8.13
2022-09-01T06:08:49.852Z,8.06
2022-09-01T06:09:49.058Z,7.85
2022-09-01T06:10:48.686Z,8.01
2022-09-01T06:11:48.993Z,7.76
2022-09-01T06:12:48.914Z,7.74
2022-09-01T06:13:52.400Z,7.78
2022-09-01T06:14:52.480Z,7.96
2022-09-01T06:15:51.895Z,7.91
2022-09-01T06:16:51.458Z,7.8
2022-09-01T06:17:51.457Z,7.84
2022-09-01T06:18:52.300Z,7.77
2022-09-01T06:19:52.318Z,7.81
2022-09-01T06:20:51.494Z,8
2022-09-01T06:21:51.542Z,8.12
2022-09-01T06:22:51.704Z,8.26
2022-09-01T06:23:52.030Z,8.19
2022-09-01T06:24:56.643Z,8.17
2022-09-01T06:25:52.277Z,8.27
2022-09-01T06:26:52.277Z,8.03
2022-09-01T06:27:52.314Z,8.14
2022-09-01T06:28:52.458Z,8.29
2022-09-01T06:29:52.455Z,8.25
2022-09-01T06:30:52.344Z,8.09
2022-09-01T06:31:52.416Z,8
2022-09-01T06:32:53.348Z,8.07
2022-09-01T06:33:53.050Z,8.09
2022-09-01T06:34:52.487Z,7.9
2022-09-01T06:35:52.830Z,7.95
2022-09-01T06:36:52.461Z,8
2022-09-01T06:37:52.426Z,7.91
2022-09-01T06:38:53.310Z,7.96
2022-09-01T06:39:52.506Z,7.96
2022-09-01T06:40:59.407Z,8.06
2022-09-01T06:41:55.720Z,8.3
2022-09-01T06:42:56.041Z,8.13
2022-09-01T06:43:55.781Z,8.1
2022-09-01T06:44:55.822Z,8.03
2022-09-01T06:45:56.161Z,8
2022-09-01T06:46:56.385Z,8.06
2022-09-01T06:47:57.682Z,8.01
2022-09-01T06:48:56.781Z,8.11
2022-09-01T06:49:58.053Z,8.01
2022-09-01T06:51:17.176Z,8
2022-09-01T06:52:00.763Z,8.04
2022-09-01T06:54:01.280Z,7.97
2022-09-01T06:56:02.782Z,8.18
2022-09-01T06:58:03.355Z,8.08
2022-09-01T06:58:06.577Z,8.16
2022-09-01T06:59:04.546Z,8.13
2022-09-01T07:01:09.470Z,8.07
2022-09-01T07:02:11.365Z,7.93
2022-09-01T07:03:13.527Z,8.04
2022-09-01T07:04:13.040Z,8.04
2022-09-01T07:05:58.873Z,8.1
2022-09-01T07:06:59.088Z,7.98
2022-09-01T07:08:17.078Z,8.05
2022-09-01T07:09:20.596Z,8.15
2022-09-01T07:10:22.641Z,8.27
2022-09-01T07:12:07.518Z,8.37
2022-09-01T07:12:26.279Z,8.43
2022-09-01T07:13:22.875Z,8.35
2022-09-01T07:14:22.742Z,8.55
2022-09-01T07:16:35.393Z,8.77
2022-09-01T07:17:28.725Z,8.85
2022-09-01T07:18:29.032Z,8.94
2022-09-01T07:19:49.567Z,9.04
2022-09-01T07:20:29.818Z,8.85
2022-09-01T07:21:40.840Z,9.12
2022-09-01T07:23:02.648Z,9.01
2022-09-01T07:24:35.509Z,9.12
2022-09-01T07:26:00.670Z,8.93
2022-09-01T07:26:48.301Z,8.77
2022-09-01T07:27:44.790Z,8.79
2022-09-01T07:28:48.015Z,8.86
2022-09-01T07:29:44.600Z,9.1
2022-09-01T07:30:48.570Z,9.07
2022-09-01T07:32:44.073Z,9.05
2022-09-01T07:32:47.657Z,9.02
2022-09-01T07:33:53.342Z,9.13
2022-09-01T07:34:50.336Z,9.1
2022-09-01T07:39:55.735Z,9.11
2022-09-01T07:39:57.603Z,8.05
2022-09-01T07:42:33.694Z,8.94
2022-09-01T07:43:59.332Z,9.39
2022-09-01T07:45:25.372Z,9.41
2022-09-01T07:46:36.773Z,9.48
2022-09-01T07:47:51.907Z,9.75
2022-09-01T07:48:06.936Z,9.72
2022-09-01T07:50:24.846Z,9.82
2022-09-01T07:52:13.963Z,9.59
2022-09-01T07:53:19.799Z,9.48
2022-09-01T07:54:17.923Z,9.6
2022-09-01T07:55:17.913Z,9.54
2022-09-01T07:56:19.199Z,9.53
2022-09-01T07:57:18.015Z,9.52
2022-09-01T07:58:19.839Z,9.44
2022-09-01T07:59:18.015Z,9.4
2022-09-01T08:00:18.166Z,9.45
2022-09-01T08:01:19.590Z,9.45
2022-09-01T08:02:18.076Z,9.74
2022-09-01T08:03:19.453Z,9.91
2022-09-01T08:04:18.071Z,9.81
2022-09-01T08:05:18.690Z,10.14
2022-09-01T08:06:19.358Z,10.24
2022-09-01T08:07:18.137Z,10.1
2022-09-01T08:08:19.623Z,10.19
2022-09-01T08:09:32.985Z,10.08
2022-09-01T08:10:20.245Z,10.04
2022-09-01T08:12:28.946Z,9.86
2022-09-01T08:13:26.039Z,10.05
2022-09-01T08:14:25.374Z,10.12
2022-09-01T08:16:06.506Z,10.09
2022-09-01T08:16:38.931Z,10.04
2022-09-01T08:17:50.294Z,10.2
2022-09-01T08:18:48.118Z,10.18
2022-09-01T08:19:36.192Z,10.12
2022-09-01T08:20:37.618Z,10.09
2022-09-01T08:21:35.269Z,10.06
2022-09-01T08:22:35.833Z,9.99
2022-09-01T08:23:35.522Z,10.13
2022-09-01T08:24:35.279Z,10.18
2022-09-01T08:25:36.189Z,9.97
2022-09-01T08:26:35.278Z,9.99
2022-09-01T08:27:36.980Z,10.04
2022-09-01T08:28:35.866Z,9.87
2022-09-01T08:29:35.495Z,9.8
2022-09-01T08:30:35.581Z,9.7
2022-09-01T08:31:35.397Z,9.51
2022-09-01T08:32:35.883Z,9.41
2022-09-01T08:33:35.372Z,9.35
2022-09-01T08:34:35.370Z,9.33
2022-09-01T08:35:35.699Z,9.33
2022-09-01T08:36:36.258Z,9.38
2022-09-01T08:37:35.537Z,9.34
2022-09-01T08:38:35.510Z,9.3
2022-09-01T08:39:35.503Z,9.24
2022-09-01T08:40:35.732Z,9.26
2022-09-01T08:41:46.869Z,9.3
2022-09-01T08:45:49.967Z,9.11
2022-09-01T08:46:48.860Z,9.18
2022-09-01T08:48:22.543Z,9.29
2022-09-01T08:49:53.148Z,9.26
2022-09-01T08:50:56.184Z,9.35
2022-09-01T08:53:09.543Z,9.82
2022-09-01T08:54:09.355Z,9.7
2022-09-01T08:56:11.200Z,9.85
2022-09-01T08:58:15.181Z,9.94
2022-09-01T08:59:11.567Z,10.2
2022-09-01T09:00:13.734Z,10.45
2022-09-01T09:06:28.839Z,10.66
2022-09-01T09:09:37.426Z,10.61
2022-09-01T09:12:49.874Z,10.91
2022-09-01T09:16:53.846Z,10.8
2022-09-01T09:18:56.556Z,10.94
2022-09-01T09:19:53.690Z,10.82
2022-09-01T09:20:53.033Z,11.01
2022-09-01T09:21:54.202Z,11.02
2022-09-01T09:22:53.449Z,11.12
2022-09-01T09:24:00.373Z,11.22
2022-09-01T09:25:04.017Z,11.07
2022-09-01T09:26:00.189Z,10.82
2022-09-01T09:27:00.242Z,10.71
2022-09-01T09:28:00.825Z,10.47
2022-09-01T09:29:00.240Z,10.56
2022-09-01T09:30:08.035Z,10.44
2022-09-01T09:32:05.559Z,10.42
2022-09-01T09:34:02.113Z,10.84
2022-09-01T09:39:14.330Z,11.32
2022-09-01T09:40:14.442Z,11.36
2022-09-01T09:41:20.251Z,11.52
2022-09-01T09:42:17.368Z,11.62
2022-09-01T09:43:17.297Z,11.82
2022-09-01T09:44:22.810Z,11.54
2022-09-01T09:48:29.775Z,10.76
2022-09-01T09:49:34.597Z,10.91
2022-09-01T09:50:28.135Z,10.64
2022-09-01T09:51:28.871Z,10.69
2022-09-01T09:52:26.245Z,10.7
2022-09-01T09:53:30.909Z,10.86
2022-09-01T09:54:28.454Z,10.94
2022-09-01T09:55:28.574Z,10.84
2022-09-01T09:56:27.175Z,10.85
2022-09-01T09:57:28.799Z,10.75
2022-09-01T09:58:35.181Z,10.8
2022-09-01T09:59:57.731Z,11.15
2022-09-01T10:00:34.640Z,11.28
2022-09-01T10:01:34.371Z,11.7
2022-09-01T10:02:38.850Z,11.91
2022-09-01T10:03:38.387Z,11.92
2022-09-01T10:04:37.842Z,11.87
2022-09-01T10:05:42.890Z,12.23
2022-09-01T10:06:41.344Z,11.79
2022-09-01T10:07:39.608Z,11.67
2022-09-01T10:08:41.689Z,11.28
2022-09-01T10:09:39.618Z,10.94
2022-09-01T10:10:42.295Z,10.75
2022-09-01T10:11:41.791Z,10.61
2022-09-01T10:12:39.717Z,10.56
2022-09-01T10:13:39.691Z,10.6
2022-09-01T10:15:51.502Z,10.47
2022-09-01T10:16:52.239Z,10.31
2022-09-01T10:17:51.619Z,10.18
2022-09-01T10:18:48.905Z,10.27
2022-09-01T10:19:53.135Z,10.28
2022-09-01T10:20:56.198Z,10.33
2022-09-01T10:21:52.387Z,10.49
2022-09-01T10:22:53.224Z,10.92
2022-09-01T10:23:53.398Z,11.17
2022-09-01T10:24:52.492Z,11.75
2022-09-01T10:25:56.957Z,11.38
2022-09-01T10:26:56.120Z,11.14
2022-09-01T10:27:58.360Z,11.11
2022-09-01T10:31:00.617Z,11.38
2022-09-01T10:32:30.631Z,11.2
2022-09-01T10:33:11.306Z,11.13
2022-09-01T10:34:06.515Z,10.88
2022-09-01T10:35:07.652Z,10.47
2022-09-01T10:36:07.836Z,10.16
2022-09-01T10:37:10.558Z,9.93
2022-09-01T10:38:14.314Z,9.62
2022-09-01T10:39:12.431Z,9.28
2022-09-01T10:42:19.524Z,9.04
2022-09-01T10:44:19.621Z,9.13
2022-09-01T10:48:33.380Z,9.03
2022-09-01T10:50:35.978Z,9.08
2022-09-01T10:55:46.407Z,10.1
2022-09-01T10:56:52.176Z,10.11
2022-09-01T10:59:56.718Z,10.73
2022-09-01T11:04:00.613Z,10.51
2022-09-01T11:07:29.743Z,8.37
2022-09-01T11:14:23.255Z,7.98
2022-09-01T11:18:30.665Z,7.93
2022-09-01T11:19:33.357Z,8.05
2022-09-01T11:21:32.025Z,8.06
2022-09-01T11:23:34.039Z,8.14
2022-09-01T11:25:39.730Z,8.14
2022-09-01T11:28:40.413Z,8.34
2022-09-01T11:29:53.019Z,8.39
2022-09-01T11:31:47.337Z,8.37
2022-09-01T11:32:50.321Z,8.41
2022-09-01T11:34:49.096Z,8.23
2022-09-01T11:35:57.727Z,8.27
2022-09-01T11:36:53.960Z,8.28
2022-09-01T11:37:56.535Z,8.2
2022-09-01T11:38:54.478Z,8.29
2022-09-01T11:39:55.275Z,8.15
2022-09-01T11:40:56.523Z,8.22
2022-09-01T11:41:57.418Z,8.2
2022-09-01T11:42:57.976Z,8.25
2022-09-01T11:43:57.260Z,8.38
2022-09-01T11:45:06.690Z,8.41
2022-09-01T11:48:01.977Z,8.63
2022-09-01T11:49:05.173Z,8.55
2022-09-01T11:51:04.198Z,8.33
2022-09-01T11:52:03.659Z,8.29
2022-09-01T11:53:05.651Z,8.37
2022-09-01T11:54:02.471Z,8.28
2022-09-01T11:55:04.273Z,8.23
2022-09-01T11:57:19.677Z,8.2
2022-09-01T11:58:12.464Z,8.11
2022-09-01T11:59:11.229Z,8.01
2022-09-01T12:00:12.501Z,8.12
2022-09-01T12:01:22.469Z,8.08
2022-09-01T12:02:21.849Z,7.81
2022-09-01T12:03:23.711Z,7.87
2022-09-01T12:04:30.945Z,7.85
2022-09-01T12:05:30.583Z,7.81
2022-09-01T12:06:28.527Z,7.78
2022-09-01T12:08:29.791Z,7.79
2022-09-01T12:09:32.562Z,7.75
2022-09-01T12:11:34.513Z,7.85
2022-09-01T12:12:34.609Z,7.96
2022-09-01T12:13:33.539Z,7.95
2022-09-01T12:14:55.124Z,8.01
2022-09-01T12:15:35.846Z,8.09
2022-09-01T12:16:35.381Z,8.21
2022-09-01T12:17:35.263Z,8.19
2022-09-01T12:19:35.277Z,8.03
2022-09-01T12:20:36.369Z,8.02
2022-09-01T12:21:36.929Z,8.08
2022-09-01T12:22:35.226Z,8.43
2022-09-01T12:23:37.046Z,8.37
2022-09-01T12:24:35.558Z,8.39
2022-09-01T12:25:35.331Z,8.53
2022-09-01T12:26:35.884Z,8.4
2022-09-01T12:27:35.436Z,8.5
2022-09-01T12:28:35.953Z,8.36
2022-09-01T12:29:37.071Z,8.39
2022-09-01T12:30:35.516Z,8.39
2022-09-01T12:31:35.542Z,8.36
2022-09-01T12:32:35.470Z,8.55
2022-09-01T12:33:36.031Z,8.23
2022-09-01T12:34:40.138Z,8.23
2022-09-01T12:35:36.405Z,8.19
2022-09-01T12:36:37.025Z,8.26
2022-09-01T12:37:36.368Z,8.45
2022-09-01T12:38:36.378Z,8.64
2022-09-01T12:39:38.782Z,8.49
2022-09-01T12:40:36.484Z,8.35
2022-09-01T12:41:39.029Z,8.46
2022-09-01T12:42:40.953Z,8.68
2022-09-01T12:43:39.529Z,8.62
2022-09-01T12:45:46.848Z,8.77
2022-09-01T12:46:44.274Z,9.05
2022-09-01T12:47:44.883Z,8.93
2022-09-01T12:48:44.732Z,8.81
2022-09-01T12:49:50.384Z,8.88
2022-09-01T12:50:47.447Z,8.87
2022-09-01T12:51:47.382Z,8.95
2022-09-01T12:56:52.424Z,8.92
2022-09-01T12:57:54.283Z,9.05
2022-09-01T13:00:59.992Z,9.11
2022-09-01T13:01:56.572Z,9
2022-09-01T13:06:07.995Z,9.09
2022-09-01T13:07:07.706Z,8.96
2022-09-01T13:08:08.581Z,8.94
2022-09-01T13:09:07.517Z,8.95
2022-09-01T13:10:07.472Z,8.85
2022-09-01T13:11:11.309Z,8.99
2022-09-01T13:12:11.775Z,9.02
2022-09-01T13:13:09.025Z,9.24
2022-09-01T13:14:08.749Z,9.1
2022-09-01T13:15:09.299Z,9.07
2022-09-01T13:16:08.277Z,9.22
2022-09-01T13:17:10.081Z,9.16
2022-09-01T13:18:11.581Z,9.27
2022-09-01T13:19:11.189Z,9.32
2022-09-01T13:20:10.810Z,9.37
2022-09-01T13:21:11.876Z,9.26
2022-09-01T13:22:11.021Z,9.31
2022-09-01T13:23:10.773Z,9.47
2022-09-01T13:24:10.727Z,9.44
2022-09-01T13:25:11.953Z,9.45
2022-09-01T13:26:10.807Z,9.62
2022-09-01T13:27:26.185Z,9.57
2022-09-01T13:28:14.308Z,9.35
2022-09-01T13:29:13.531Z,9.45
2022-09-01T13:30:18.047Z,9.31
2022-09-01T13:31:30.637Z,9.26
2022-09-01T13:32:20.719Z,9.41
2022-09-01T13:33:19.446Z,9.32
2022-09-01T13:34:23.086Z,9.54
2022-09-01T13:35:22.153Z,9.35
2022-09-01T13:37:22.938Z,9.39
2022-09-01T13:38:22.639Z,9.37
2022-09-01T13:39:22.996Z,9.4
2022-09-01T13:40:22.924Z,9.38
2022-09-01T13:41:22.237Z,9.48
2022-09-01T13:42:22.797Z,9.38
2022-09-01T13:43:24.853Z,9.46
2022-09-01T13:44:24.889Z,9.53
2022-09-01T13:45:24.942Z,9.58
2022-09-01T13:46:24.994Z,9.64
2022-09-01T13:47:28.965Z,9.63
2022-09-01T13:49:02.127Z,9.76
2022-09-01T13:49:44.969Z,9.84
2022-09-01T13:50:29.138Z,9.44
2022-09-01T13:51:29.766Z,9.43
2022-09-01T13:52:29.770Z,9.53
2022-09-01T13:53:29.805Z,9.37
2022-09-01T13:54:29.821Z,9.6
2022-09-01T13:55:31.430Z,9.41
2022-09-01T13:56:29.861Z,9.28
2022-09-01T13:57:35.807Z,9.45
2022-09-01T13:58:32.896Z,9.3
2022-09-01T13:59:32.891Z,9.41
2022-09-01T14:00:34.386Z,9.53
2022-09-01T14:01:32.919Z,9.59
2022-09-01T14:02:32.906Z,9.44
2022-09-01T14:03:33.009Z,9.63
2022-09-01T14:04:33.170Z,9.78
2022-09-01T14:05:34.552Z,9.62
2022-09-01T14:06:32.985Z,9.47
2022-09-01T14:07:33.025Z,9.32
2022-09-01T14:08:33.073Z,9.4
2022-09-01T14:09:33.385Z,9.39
2022-09-01T14:10:33.469Z,9.57
2022-09-01T14:11:33.212Z,9.59
2022-09-01T14:12:33.182Z,9.52
2022-09-01T14:13:33.117Z,9.61
2022-09-01T14:15:35.200Z,9.44
2022-09-01T14:16:35.069Z,9.41
2022-09-01T14:17:35.666Z,9.41
2022-09-01T14:18:35.232Z,9.38
2022-09-01T14:19:35.044Z,9.23
2022-09-01T14:20:37.274Z,9.22
2022-09-01T14:21:35.065Z,9.3
2022-09-01T14:22:38.358Z,9.29
2022-09-01T14:23:35.088Z,9.28
2022-09-01T14:24:37.549Z,9.43
2022-09-01T14:25:37.458Z,9.33
2022-09-01T14:26:36.645Z,9.31
2022-09-01T14:27:37.067Z,9.46
2022-09-01T14:28:37.211Z,9.45
2022-09-01T14:30:36.746Z,9.38
2022-09-01T14:31:36.724Z,9.37
2022-09-01T14:32:36.781Z,9.55
2022-09-01T14:33:37.411Z,9.59
2022-09-01T14:34:36.811Z,9.73
2022-09-01T14:35:40.826Z,9.53
2022-09-01T14:36:37.444Z,9.62
2022-09-01T14:37:37.762Z,9.57
2022-09-01T14:38:37.024Z,9.73
2022-09-01T14:39:37.118Z,9.8
2022-09-01T14:40:38.070Z,9.92
2022-09-01T14:41:37.150Z,10.16
2022-09-01T14:42:37.166Z,10.02
2022-09-01T14:43:37.090Z,10.02
2022-09-01T14:44:37.494Z,10
2022-09-01T14:45:37.166Z,10.08
2022-09-01T14:46:38.005Z,10.13
2022-09-01T14:47:37.508Z,10.18
2022-09-01T14:48:38.454Z,10.09
2022-09-01T14:49:37.313Z,10.24
2022-09-01T14:50:39.671Z,10.11
2022-09-01T14:52:38.449Z,10.13
2022-09-01T14:53:38.412Z,10.18
2022-09-01T14:54:39.397Z,10.07
2022-09-01T14:55:38.899Z,9.99
2022-09-01T14:56:38.460Z,9.95
2022-09-01T14:57:38.758Z,9.94
2022-09-01T14:58:38.494Z,10.11
2022-09-01T14:59:38.512Z,9.95
2022-09-01T15:00:38.612Z,10.06
2022-09-01T15:01:38.577Z,10.12
2022-09-01T15:02:42.577Z,10.05
2022-09-01T15:03:38.757Z,9.97
2022-09-01T15:04:38.849Z,9.94
2022-09-01T15:05:40.043Z,9.92
2022-09-01T15:06:38.825Z,9.97
2022-09-01T15:07:38.870Z,9.9
2022-09-01T15:08:39.156Z,9.88
2022-09-01T15:09:38.854Z,9.75
2022-09-01T15:10:39.826Z,9.67
2022-09-01T15:11:44.268Z,9.64
2022-09-01T15:12:41.853Z,9.81